createdAt,value
2023-01-19T22:17:57.484Z,57.71
2023-01-19T22:20:24.850Z,57.67
2023-01-19T22:22:52.189Z,57.51
2023-01-19T22:25:24.054Z,57.45
2023-01-19T22:27:51.319Z,57.38
2023-01-19T22:30:19.065Z,57.36
2023-01-19T22:32:46.328Z,57.32
2023-01-19T22:35:14.701Z,57.30
2023-01-19T22:37:42.155Z,57.32
2023-01-19T22:40:10.225Z,57.23
2023-01-19T22:42:37.478Z,57.32
2023-01-19T22:45:05.158Z,57.33
2023-01-19T22:47:32.499Z,57.28
2023-01-19T22:49:59.760Z,57.43
2023-01-19T22:52:27.104Z,57.48
2023-01-19T22:54:56.606Z,57.40
2023-01-19T22:57:24.131Z,57.48
2023-01-19T22:59:51.522Z,57.58
2023-01-19T23:02:20.803Z,57.61
2023-01-19T23:04:48.497Z,57.65
2023-01-19T23:07:15.734Z,57.75
2023-01-19T23:09:42.886Z,57.70
2023-01-19T23:12:10.136Z,57.79
2023-01-19T23:14:37.393Z,57.84
2023-01-19T23:17:04.642Z,57.86
2023-01-19T23:19:31.993Z,57.92
2023-01-19T23:21:59.167Z,57.97
2023-01-19T23:24:26.701Z,57.96
2023-01-19T23:26:53.965Z,57.94
2023-01-19T23:29:21.310Z,58.02
2023-01-19T23:31:49.277Z,58.04
2023-01-19T23:34:17.246Z,58.15
2023-01-19T23:36:44.513Z,58.17
2023-01-19T23:39:19.565Z,58.25
2023-01-19T23:41:46.991Z,58.26
2023-01-19T23:44:14.556Z,58.26
2023-01-19T23:46:41.714Z,58.35
2023-01-19T23:49:08.997Z,58.28
2023-01-19T23:51:36.312Z,58.35
2023-01-19T23:54:03.872Z,58.35
2023-01-19T23:56:35.691Z,58.39
2023-01-19T23:59:07.694Z,58.43
